< Cyclone 201730 2018 Season Cyclone 201803 >
Cyclone 201802 (Cempaka)
General InformationDetailed Track InformationTrack Information on Google MapsList of All Images || ResourceGoogle EarthGE AnimationAtom FeedGeoJSON
Detalied Best Track Wind (Time Zone = UTC)
Year Month Day Hour Lat. Long. Wind (kt) Gust (kt) Direc. of Major Storm Axis Radius of Major Storm Axis (nm) Radius of Minor Storm Axis (nm) Direc. of Major Gale Axis Radius of Major Gale Axis (nm) Radius of Minor Gale Axis (nm) Image
2017 11 21 00 -9.9 112.0 15 45 symmetric - - symmetric - - Image
2017 11 21 06 -10.4 112.3 15 45 symmetric - - symmetric - - Image
2017 11 21 12 -9.9 111.8 15 45 symmetric - - symmetric - - Image
2017 11 21 18 -9.9 111.8 15 45 symmetric - - symmetric - - Image
2017 11 22 00 -9.6 111.8 15 45 symmetric - - symmetric - - Image
2017 11 22 12 -9.8 111.7 15 45 symmetric - - symmetric - - Image
2017 11 23 00 -9.5 111.5 15 45 symmetric - - symmetric - - Image
2017 11 23 12 -10.3 111.4 15 45 symmetric - - symmetric - - Image
2017 11 24 00 -9.6 110.8 15 45 symmetric - - symmetric - - Image
2017 11 24 12 -9.4 110.7 15 45 symmetric - - symmetric - - Image
2017 11 25 00 -9.6 109.5 20 45 symmetric - - symmetric - - Image
2017 11 25 12 -8.9 109.3 20 45 symmetric - - symmetric - - Image
2017 11 26 00 -9.3 109.1 20 45 symmetric - - symmetric - - Image
2017 11 26 12 -9.1 109.3 20 45 symmetric - - symmetric - - Image
2017 11 26 18 -8.8 109.6 25 45 symmetric - - symmetric - - Image
2017 11 27 00 -8.7 109.8 25 45 symmetric - - symmetric - - Image
2017 11 27 06 -8.5 110.4 30 45 symmetric - - symmetric - - Image
2017 11 27 12 -8.5 110.8 35 50 symmetric - - symmetric - - Image
2017 11 27 18 -8.3 111.0 35 50 symmetric - - symmetric - - Image
2017 11 28 00 -8.4 111.2 35 50 symmetric - - symmetric - - Image
2017 11 28 06 -8.6 111.0 35 50 symmetric - - symmetric - - Image
2017 11 28 12 -8.4 110.2 35 50 symmetric - - symmetric - - Image
2017 11 28 18 -9.3 111.0 35 50 symmetric - - symmetric - - Image
2017 11 29 00 -9.4 111.5 25 45 symmetric - - symmetric - - Image
< Cyclone 201730 2018 Season Cyclone 201803 >

Help